sensor_id;sensor_type;location;lat;lon;timestamp;temperature;humidity
3548;DHT22;1788;49.400;11.092;2022-10-15T00:03:34;16.30;76.50
3548;DHT22;1788;49.400;11.092;2022-10-15T00:06:02;16.30;76.50
3548;DHT22;1788;49.400;11.092;2022-10-15T00:08:25;16.40;76.70
3548;DHT22;1788;49.400;11.092;2022-10-15T00:10:51;16.30;76.60
3548;DHT22;1788;49.400;11.092;2022-10-15T00:13:18;16.40;76.70
3548;DHT22;1788;49.400;11.092;2022-10-15T00:15:45;16.30;76.70
3548;DHT22;1788;49.400;11.092;2022-10-15T00:18:11;16.40;76.90
3548;DHT22;1788;49.400;11.092;2022-10-15T00:20:40;16.40;76.90
3548;DHT22;1788;49.400;11.092;2022-10-15T00:23:04;16.40;77.00
3548;DHT22;1788;49.400;11.092;2022-10-15T00:25:32;16.30;77.20
3548;DHT22;1788;49.400;11.092;2022-10-15T00:27:58;16.30;76.90
3548;DHT22;1788;49.400;11.092;2022-10-15T00:30:25;16.30;76.90
3548;DHT22;1788;49.400;11.092;2022-10-15T00:32:52;16.40;77.00
3548;DHT22;1788;49.400;11.092;2022-10-15T00:35:18;16.30;76.90
3548;DHT22;1788;49.400;11.092;2022-10-15T00:37:45;16.40;77.10
3548;DHT22;1788;49.400;11.092;2022-10-15T00:40:11;16.40;77.10
3548;DHT22;1788;49.400;11.092;2022-10-15T00:42:38;16.40;77.20
3548;DHT22;1788;49.400;11.092;2022-10-15T00:45:05;16.30;77.10
3548;DHT22;1788;49.400;11.092;2022-10-15T00:47:35;16.40;77.20
3548;DHT22;1788;49.400;11.092;2022-10-15T00:52:28;16.30;77.40
3548;DHT22;1788;49.400;11.092;2022-10-15T00:54:54;16.30;77.40
3548;DHT22;1788;49.400;11.092;2022-10-15T00:57:19;16.30;77.40
3548;DHT22;1788;49.400;11.092;2022-10-15T01:02:12;16.30;77.60
3548;DHT22;1788;49.400;11.092;2022-10-15T01:04:38;16.30;77.60
3548;DHT22;1788;49.400;11.092;2022-10-15T01:07:05;16.30;77.70
3548;DHT22;1788;49.400;11.092;2022-10-15T01:09:32;16.30;77.70
3548;DHT22;1788;49.400;11.092;2022-10-15T01:11:58;16.30;77.70
3548;DHT22;1788;49.400;11.092;2022-10-15T01:14:32;16.30;77.80
3548;DHT22;1788;49.400;11.092;2022-10-15T01:21:48;16.30;78.10
3548;DHT22;1788;49.400;11.092;2022-10-15T01:34:01;16.30;78.10
3548;DHT22;1788;49.400;11.092;2022-10-15T01:36:30;16.40;78.20
3548;DHT22;1788;49.400;11.092;2022-10-15T01:38:55;16.40;78.30
3548;DHT22;1788;49.400;11.092;2022-10-15T01:46:16;16.40;78.20
3548;DHT22;1788;49.400;11.092;2022-10-15T01:48:41;16.40;78.20
3548;DHT22;1788;49.400;11.092;2022-10-15T01:51:09;16.40;78.20
3548;DHT22;1788;49.400;11.092;2022-10-15T01:53:35;16.40;78.20
3548;DHT22;1788;49.400;11.092;2022-10-15T01:58:28;16.40;78.30
3548;DHT22;1788;49.400;11.092;2022-10-15T02:00:55;16.40;78.50
3548;DHT22;1788;49.400;11.092;2022-10-15T02:03:21;16.40;78.50
3548;DHT22;1788;49.400;11.092;2022-10-15T02:05:50;16.40;78.40
3548;DHT22;1788;49.400;11.092;2022-10-15T02:08:18;16.40;78.50
3548;DHT22;1788;49.400;11.092;2022-10-15T02:15:35;16.40;78.50
3548;DHT22;1788;49.400;11.092;2022-10-15T02:22:57;16.40;78.60
3548;DHT22;1788;49.400;11.092;2022-10-15T02:25:22;16.40;78.70
3548;DHT22;1788;49.400;11.092;2022-10-15T02:27:48;16.40;78.70
3548;DHT22;1788;49.400;11.092;2022-10-15T02:30:15;16.40;78.70
3548;DHT22;1788;49.400;11.092;2022-10-15T02:32:42;16.40;78.70
3548;DHT22;1788;49.400;11.092;2022-10-15T02:35:08;16.40;78.70
3548;DHT22;1788;49.400;11.092;2022-10-15T02:37:34;16.40;78.70
3548;DHT22;1788;49.400;11.092;2022-10-15T02:40:01;16.40;78.70
3548;DHT22;1788;49.400;11.092;2022-10-15T02:42:28;16.40;78.80
3548;DHT22;1788;49.400;11.092;2022-10-15T02:44:54;16.40;78.70
3548;DHT22;1788;49.400;11.092;2022-10-15T02:47:21;16.40;78.80
3548;DHT22;1788;49.400;11.092;2022-10-15T02:49:47;16.40;78.80
3548;DHT22;1788;49.400;11.092;2022-10-15T02:52:14;16.40;79.10
3548;DHT22;1788;49.400;11.092;2022-10-15T02:54:41;16.40;78.90
3548;DHT22;1788;49.400;11.092;2022-10-15T02:57:08;16.40;79.00
3548;DHT22;1788;49.400;11.092;2022-10-15T02:59:35;16.40;79.00
3548;DHT22;1788;49.400;11.092;2022-10-15T03:02:02;16.40;79.00
3548;DHT22;1788;49.400;11.092;2022-10-15T03:04:29;16.40;79.00
3548;DHT22;1788;49.400;11.092;2022-10-15T03:06:56;16.40;79.00
3548;DHT22;1788;49.400;11.092;2022-10-15T03:09:23;16.40;79.00
3548;DHT22;1788;49.400;11.092;2022-10-15T03:11:49;16.40;79.00
3548;DHT22;1788;49.400;11.092;2022-10-15T03:14:16;16.50;79.10
3548;DHT22;1788;49.400;11.092;2022-10-15T03:16:42;16.40;78.90
3548;DHT22;1788;49.400;11.092;2022-10-15T03:19:10;16.50;79.00
3548;DHT22;1788;49.400;11.092;2022-10-15T03:21:36;16.40;78.90
3548;DHT22;1788;49.400;11.092;2022-10-15T03:24:04;16.50;78.90
3548;DHT22;1788;49.400;11.092;2022-10-15T03:26:30;16.40;79.00
3548;DHT22;1788;49.400;11.092;2022-10-15T03:28:57;16.50;79.10
3548;DHT22;1788;49.400;11.092;2022-10-15T03:31:24;16.40;79.00
3548;DHT22;1788;49.400;11.092;2022-10-15T03:33:50;16.40;79.10
3548;DHT22;1788;49.400;11.092;2022-10-15T03:36:17;16.40;79.20
3548;DHT22;1788;49.400;11.092;2022-10-15T03:38:43;16.40;80.00
3548;DHT22;1788;49.400;11.092;2022-10-15T03:41:10;16.40;79.20
3548;DHT22;1788;49.400;11.092;2022-10-15T03:43:37;16.40;79.20
3548;DHT22;1788;49.400;11.092;2022-10-15T03:46:04;16.40;79.80
3548;DHT22;1788;49.400;11.092;2022-10-15T03:48:31;16.40;79.30
3548;DHT22;1788;49.400;11.092;2022-10-15T03:50:57;16.40;79.30
3548;DHT22;1788;49.400;11.092;2022-10-15T03:53:24;16.40;79.20
3548;DHT22;1788;49.400;11.092;2022-10-15T03:55:50;16.50;79.30
3548;DHT22;1788;49.400;11.092;2022-10-15T03:58:17;16.40;79.30
3548;DHT22;1788;49.400;11.092;2022-10-15T04:00:44;16.40;79.30
3548;DHT22;1788;49.400;11.092;2022-10-15T04:03:10;16.40;79.30
3548;DHT22;1788;49.400;11.092;2022-10-15T04:05:37;16.40;79.40
3548;DHT22;1788;49.400;11.092;2022-10-15T04:08:04;16.40;79.40
3548;DHT22;1788;49.400;11.092;2022-10-15T04:10:30;16.40;79.50
3548;DHT22;1788;49.400;11.092;2022-10-15T04:12:57;16.40;79.50
3548;DHT22;1788;49.400;11.092;2022-10-15T04:15:23;16.40;79.60
3548;DHT22;1788;49.400;11.092;2022-10-15T04:17:52;16.40;79.50
3548;DHT22;1788;49.400;11.092;2022-10-15T04:20:17;16.40;79.50
3548;DHT22;1788;49.400;11.092;2022-10-15T04:22:43;16.40;79.60
3548;DHT22;1788;49.400;11.092;2022-10-15T04:25:10;16.40;79.60
3548;DHT22;1788;49.400;11.092;2022-10-15T04:27:36;16.50;79.70
3548;DHT22;1788;49.400;11.092;2022-10-15T04:32:30;16.50;79.70
3548;DHT22;1788;49.400;11.092;2022-10-15T04:34:57;16.50;80.50
3548;DHT22;1788;49.400;11.092;2022-10-15T04:37:24;16.50;79.70
3548;DHT22;1788;49.400;11.092;2022-10-15T04:39:50;16.50;79.70
3548;DHT22;1788;49.400;11.092;2022-10-15T04:42:17;16.50;79.70
3548;DHT22;1788;49.400;11.092;2022-10-15T04:44:43;16.50;79.70
3548;DHT22;1788;49.400;11.092;2022-10-15T04:47:11;16.50;79.80
3548;DHT22;1788;49.400;11.092;2022-10-15T04:49:37;16.50;79.80
3548;DHT22;1788;49.400;11.092;2022-10-15T04:52:04;16.50;79.70
3548;DHT22;1788;49.400;11.092;2022-10-15T04:54:31;16.50;79.70
3548;DHT22;1788;49.400;11.092;2022-10-15T04:56:57;16.50;79.60
3548;DHT22;1788;49.400;11.092;2022-10-15T04:59:24;16.50;79.60
3548;DHT22;1788;49.400;11.092;2022-10-15T05:01:51;16.60;79.80
3548;DHT22;1788;49.400;11.092;2022-10-15T05:04:17;16.60;79.70
3548;DHT22;1788;49.400;11.092;2022-10-15T05:06:44;16.60;79.70
3548;DHT22;1788;49.400;11.092;2022-10-15T05:09:11;16.60;79.80
3548;DHT22;1788;49.400;11.092;2022-10-15T05:11:38;16.60;79.70
3548;DHT22;1788;49.400;11.092;2022-10-15T05:14:05;16.60;79.80
3548;DHT22;1788;49.400;11.092;2022-10-15T05:16:32;16.60;79.80
3548;DHT22;1788;49.400;11.092;2022-10-15T05:19:00;16.60;79.80
3548;DHT22;1788;49.400;11.092;2022-10-15T05:21:25;16.60;79.70
3548;DHT22;1788;49.400;11.092;2022-10-15T05:23:52;16.60;79.70
3548;DHT22;1788;49.400;11.092;2022-10-15T05:26:19;16.60;79.70
3548;DHT22;1788;49.400;11.092;2022-10-15T05:28:45;16.60;79.70
3548;DHT22;1788;49.400;11.092;2022-10-15T05:31:13;16.60;79.70
3548;DHT22;1788;49.400;11.092;2022-10-15T05:33:38;16.60;79.70
3548;DHT22;1788;49.400;11.092;2022-10-15T05:38:32;16.70;79.80
3548;DHT22;1788;49.400;11.092;2022-10-15T05:40:59;16.70;79.70
3548;DHT22;1788;49.400;11.092;2022-10-15T05:43:25;16.70;79.70
3548;DHT22;1788;49.400;11.092;2022-10-15T05:48:19;16.70;79.70
3548;DHT22;1788;49.400;11.092;2022-10-15T05:50:46;16.70;79.70
3548;DHT22;1788;49.400;11.092;2022-10-15T05:53:13;16.70;79.70
3548;DHT22;1788;49.400;11.092;2022-10-15T05:55:40;16.70;79.70
3548;DHT22;1788;49.400;11.092;2022-10-15T05:58:07;16.70;80.60
3548;DHT22;1788;49.400;11.092;2022-10-15T06:00:34;16.70;80.50
3548;DHT22;1788;49.400;11.092;2022-10-15T06:03:00;16.70;79.80
3548;DHT22;1788;49.400;11.092;2022-10-15T06:05:27;16.70;79.80
3548;DHT22;1788;49.400;11.092;2022-10-15T06:07:55;16.70;79.80
3548;DHT22;1788;49.400;11.092;2022-10-15T06:10:21;16.80;79.90
3548;DHT22;1788;49.400;11.092;2022-10-15T06:12:49;16.80;79.90
3548;DHT22;1788;49.400;11.092;2022-10-15T06:15:15;16.80;79.80
3548;DHT22;1788;49.400;11.092;2022-10-15T06:17:41;16.80;79.80
3548;DHT22;1788;49.400;11.092;2022-10-15T06:20:08;16.80;79.80
3548;DHT22;1788;49.400;11.092;2022-10-15T06:22:35;16.80;79.80
3548;DHT22;1788;49.400;11.092;2022-10-15T06:25:01;16.80;79.80
3548;DHT22;1788;49.400;11.092;2022-10-15T06:27:28;16.80;80.00
3548;DHT22;1788;49.400;11.092;2022-10-15T06:29:54;16.90;80.10
3548;DHT22;1788;49.400;11.092;2022-10-15T06:32:21;16.90;80.10
3548;DHT22;1788;49.400;11.092;2022-10-15T06:34:48;16.90;80.10
3548;DHT22;1788;49.400;11.092;2022-10-15T06:37:14;16.90;80.10
3548;DHT22;1788;49.400;11.092;2022-10-15T06:39:41;16.90;80.10
3548;DHT22;1788;49.400;11.092;2022-10-15T06:42:08;16.90;80.00
3548;DHT22;1788;49.400;11.092;2022-10-15T06:44:34;16.90;80.10
3548;DHT22;1788;49.400;11.092;2022-10-15T06:47:01;16.90;80.20
3548;DHT22;1788;49.400;11.092;2022-10-15T06:49:27;16.90;80.20
3548;DHT22;1788;49.400;11.092;2022-10-15T06:51:55;17.00;80.30
3548;DHT22;1788;49.400;11.092;2022-10-15T06:54:21;17.00;80.30
3548;DHT22;1788;49.400;11.092;2022-10-15T06:56:48;17.00;80.30
3548;DHT22;1788;49.400;11.092;2022-10-15T06:59:15;17.00;80.40
3548;DHT22;1788;49.400;11.092;2022-10-15T07:01:41;17.00;80.40
3548;DHT22;1788;49.400;11.092;2022-10-15T07:04:10;17.10;80.70
3548;DHT22;1788;49.400;11.092;2022-10-15T07:06:36;17.00;80.60
3548;DHT22;1788;49.400;11.092;2022-10-15T07:09:03;17.10;80.60
3548;DHT22;1788;49.400;11.092;2022-10-15T07:11:29;17.10;80.60
3548;DHT22;1788;49.400;11.092;2022-10-15T07:13:57;17.20;80.80
3548;DHT22;1788;49.400;11.092;2022-10-15T07:16:24;17.10;80.70
3548;DHT22;1788;49.400;11.092;2022-10-15T07:18:51;17.20;80.70
3548;DHT22;1788;49.400;11.092;2022-10-15T07:21:17;17.20;80.80
3548;DHT22;1788;49.400;11.092;2022-10-15T07:23:44;17.20;80.80
3548;DHT22;1788;49.400;11.092;2022-10-15T07:26:13;17.20;80.80
3548;DHT22;1788;49.400;11.092;2022-10-15T07:28:40;17.20;80.90
3548;DHT22;1788;49.400;11.092;2022-10-15T07:31:07;17.30;81.00
3548;DHT22;1788;49.400;11.092;2022-10-15T07:33:33;17.30;81.00
3548;DHT22;1788;49.400;11.092;2022-10-15T07:38:27;17.30;81.20
3548;DHT22;1788;49.400;11.092;2022-10-15T07:40:56;17.40;81.40
3548;DHT22;1788;49.400;11.092;2022-10-15T07:43:20;17.40;81.30
3548;DHT22;1788;49.400;11.092;2022-10-15T07:45:48;17.40;81.60
3548;DHT22;1788;49.400;11.092;2022-10-15T07:48:14;17.40;81.50
3548;DHT22;1788;49.400;11.092;2022-10-15T07:50:41;17.50;81.60
3548;DHT22;1788;49.400;11.092;2022-10-15T07:53:08;17.50;81.60
3548;DHT22;1788;49.400;11.092;2022-10-15T07:55:34;17.60;81.60
3548;DHT22;1788;49.400;11.092;2022-10-15T07:58:01;17.60;81.70
3548;DHT22;1788;49.400;11.092;2022-10-15T08:00:29;17.50;81.60
3548;DHT22;1788;49.400;11.092;2022-10-15T08:02:55;17.60;81.70
3548;DHT22;1788;49.400;11.092;2022-10-15T08:05:22;17.60;81.70
3548;DHT22;1788;49.400;11.092;2022-10-15T08:07:49;17.60;81.80
3548;DHT22;1788;49.400;11.092;2022-10-15T08:10:15;17.60;81.90
3548;DHT22;1788;49.400;11.092;2022-10-15T08:12:43;17.60;82.00
3548;DHT22;1788;49.400;11.092;2022-10-15T08:15:09;17.60;82.00
3548;DHT22;1788;49.400;11.092;2022-10-15T08:17:36;17.60;82.00
3548;DHT22;1788;49.400;11.092;2022-10-15T08:20:02;17.70;82.20
3548;DHT22;1788;49.400;11.092;2022-10-15T08:22:29;17.70;83.00
3548;DHT22;1788;49.400;11.092;2022-10-15T08:24:56;17.70;82.20
3548;DHT22;1788;49.400;11.092;2022-10-15T08:27:22;17.70;82.20
3548;DHT22;1788;49.400;11.092;2022-10-15T08:29:49;17.70;82.20
3548;DHT22;1788;49.400;11.092;2022-10-15T08:32:15;17.70;82.20
3548;DHT22;1788;49.400;11.092;2022-10-15T08:34:43;17.70;82.20
3548;DHT22;1788;49.400;11.092;2022-10-15T08:37:09;17.70;82.20
3548;DHT22;1788;49.400;11.092;2022-10-15T08:39:36;17.70;82.20
3548;DHT22;1788;49.400;11.092;2022-10-15T08:44:31;17.70;82.40
3548;DHT22;1788;49.400;11.092;2022-10-15T08:49:26;17.70;82.50
3548;DHT22;1788;49.400;11.092;2022-10-15T08:51:50;17.70;82.60
3548;DHT22;1788;49.400;11.092;2022-10-15T08:54:16;17.70;82.60
3548;DHT22;1788;49.400;11.092;2022-10-15T08:56:43;17.70;82.60
3548;DHT22;1788;49.400;11.092;2022-10-15T09:06:33;17.70;82.90
3548;DHT22;1788;49.400;11.092;2022-10-15T09:13:49;17.70;82.80
3548;DHT22;1788;49.400;11.092;2022-10-15T09:16:18;17.70;82.90
3548;DHT22;1788;49.400;11.092;2022-10-15T09:18:45;17.70;83.00
3548;DHT22;1788;49.400;11.092;2022-10-15T09:21:10;17.70;83.00
3548;DHT22;1788;49.400;11.092;2022-10-15T09:23:37;17.70;83.10
3548;DHT22;1788;49.400;11.092;2022-10-15T09:28:36;17.70;83.10
3548;DHT22;1788;49.400;11.092;2022-10-15T09:30:57;17.70;83.20
3548;DHT22;1788;49.400;11.092;2022-10-15T09:35:52;17.70;83.30
3548;DHT22;1788;49.400;11.092;2022-10-15T09:38:23;17.80;83.50
3548;DHT22;1788;49.400;11.092;2022-10-15T09:43:12;18.00;83.90
3548;DHT22;1788;49.400;11.092;2022-10-15T09:45:38;17.90;83.80
3548;DHT22;1788;49.400;11.092;2022-10-15T09:53:03;18.20;83.80
3548;DHT22;1788;49.400;11.092;2022-10-15T09:57:54;18.30;83.80
3548;DHT22;1788;49.400;11.092;2022-10-15T10:00:20;18.40;83.40
3548;DHT22;1788;49.400;11.092;2022-10-15T10:03:02;18.40;83.40
3548;DHT22;1788;49.400;11.092;2022-10-15T10:07:41;18.50;83.30
3548;DHT22;1788;49.400;11.092;2022-10-15T10:12:35;18.60;83.20
3548;DHT22;1788;49.400;11.092;2022-10-15T10:17:28;18.60;83.10
3548;DHT22;1788;49.400;11.092;2022-10-15T10:22:21;18.50;82.90
3548;DHT22;1788;49.400;11.092;2022-10-15T10:24:48;18.60;83.00
3548;DHT22;1788;49.400;11.092;2022-10-15T10:29:41;18.60;83.00
3548;DHT22;1788;49.400;11.092;2022-10-15T10:32:09;18.60;82.90
3548;DHT22;1788;49.400;11.092;2022-10-15T10:34:34;18.60;83.10
3548;DHT22;1788;49.400;11.092;2022-10-15T10:37:02;18.60;83.00
3548;DHT22;1788;49.400;11.092;2022-10-15T10:39:28;18.70;82.90
3548;DHT22;1788;49.400;11.092;2022-10-15T10:49:14;18.80;82.80
3548;DHT22;1788;49.400;11.092;2022-10-15T10:51:47;18.90;82.50
3548;DHT22;1788;49.400;11.092;2022-10-15T10:54:08;18.90;82.50
3548;DHT22;1788;49.400;11.092;2022-10-15T11:01:28;19.20;82.20
3548;DHT22;1788;49.400;11.092;2022-10-15T11:03:54;19.30;82.00
3548;DHT22;1788;49.400;11.092;2022-10-15T11:06:26;19.40;81.70
3548;DHT22;1788;49.400;11.092;2022-10-15T11:11:17;19.50;81.20
3548;DHT22;1788;49.400;11.092;2022-10-15T11:16:10;19.60;80.60
3548;DHT22;1788;49.400;11.092;2022-10-15T11:26:00;19.60;79.60
3548;DHT22;1788;49.400;11.092;2022-10-15T11:30:51;19.50;78.90
3548;DHT22;1788;49.400;11.092;2022-10-15T11:55:20;19.30;77.90
3548;DHT22;1788;49.400;11.092;2022-10-15T11:57:45;19.30;77.90
3548;DHT22;1788;49.400;11.092;2022-10-15T12:00:14;19.40;77.80
3548;DHT22;1788;49.400;11.092;2022-10-15T12:02:38;19.30;77.60
3548;DHT22;1788;49.400;11.092;2022-10-15T12:10:02;19.30;77.20
3548;DHT22;1788;49.400;11.092;2022-10-15T12:14:58;19.30;76.90
3548;DHT22;1788;49.400;11.092;2022-10-15T12:19:47;19.30;77.20
3548;DHT22;1788;49.400;11.092;2022-10-15T12:22:13;19.20;77.20
3548;DHT22;1788;49.400;11.092;2022-10-15T12:29:34;19.20;77.50
3548;DHT22;1788;49.400;11.092;2022-10-15T12:32:01;19.30;77.80
3548;DHT22;1788;49.400;11.092;2022-10-15T12:39:23;19.40;77.90
3548;DHT22;1788;49.400;11.092;2022-10-15T12:41:50;19.40;78.00
3548;DHT22;1788;49.400;11.092;2022-10-15T12:46:43;19.50;78.10
3548;DHT22;1788;49.400;11.092;2022-10-15T12:51:37;19.70;78.30
3548;DHT22;1788;49.400;11.092;2022-10-15T12:54:25;20.00;77.60
3548;DHT22;1788;49.400;11.092;2022-10-15T12:58:57;20.10;77.10
3548;DHT22;1788;49.400;11.092;2022-10-15T13:03:51;20.00;76.40
3548;DHT22;1788;49.400;11.092;2022-10-15T13:08:47;19.90;76.10
3548;DHT22;1788;49.400;11.092;2022-10-15T13:13:39;19.70;76.40
3548;DHT22;1788;49.400;11.092;2022-10-15T13:16:06;19.70;76.60
3548;DHT22;1788;49.400;11.092;2022-10-15T13:18:32;19.70;76.70
3548;DHT22;1788;49.400;11.092;2022-10-15T13:20:59;19.70;76.90
3548;DHT22;1788;49.400;11.092;2022-10-15T13:23:27;20.70;76.10
3548;DHT22;1788;49.400;11.092;2022-10-15T13:30:47;22.00;73.20
3548;DHT22;1788;49.400;11.092;2022-10-15T13:33:14;22.30;72.40
3548;DHT22;1788;49.400;11.092;2022-10-15T13:35:41;22.20;72.50
3548;DHT22;1788;49.400;11.092;2022-10-15T13:38:14;22.20;71.70
3548;DHT22;1788;49.400;11.092;2022-10-15T13:40:34;22.10;71.70
3548;DHT22;1788;49.400;11.092;2022-10-15T13:43:03;22.20;72.00
3548;DHT22;1788;49.400;11.092;2022-10-15T13:45:28;22.70;71.00
3548;DHT22;1788;49.400;11.092;2022-10-15T13:47:54;22.80;70.00
3548;DHT22;1788;49.400;11.092;2022-10-15T13:52:49;22.40;68.90
3548;DHT22;1788;49.400;11.092;2022-10-15T13:55:16;22.20;69.20
3548;DHT22;1788;49.400;11.092;2022-10-15T14:00:17;21.70;69.60
3548;DHT22;1788;49.400;11.092;2022-10-15T14:02:35;21.50;69.90
3548;DHT22;1788;49.400;11.092;2022-10-15T14:07:28;21.30;70.50
3548;DHT22;1788;49.400;11.092;2022-10-15T14:09:54;22.00;70.30
3548;DHT22;1788;49.400;11.092;2022-10-15T14:12:22;24.60;65.30
3548;DHT22;1788;49.400;11.092;2022-10-15T14:14:48;24.50;65.10
3548;DHT22;1788;49.400;11.092;2022-10-15T14:17:22;25.70;62.40
3548;DHT22;1788;49.400;11.092;2022-10-15T14:19:45;26.50;59.90
3548;DHT22;1788;49.400;11.092;2022-10-15T14:22:14;26.30;59.40
3548;DHT22;1788;49.400;11.092;2022-10-15T14:24:36;25.00;60.40
3548;DHT22;1788;49.400;11.092;2022-10-15T14:27:03;25.00;60.30
3548;DHT22;1788;49.400;11.092;2022-10-15T14:31:56;23.80;61.90
3548;DHT22;1788;49.400;11.092;2022-10-15T14:36:50;24.10;62.90
3548;DHT22;1788;49.400;11.092;2022-10-15T14:46:39;23.80;62.20
3548;DHT22;1788;49.400;11.092;2022-10-15T14:49:12;23.80;62.20
3548;DHT22;1788;49.400;11.092;2022-10-15T14:51:31;23.70;62.10
3548;DHT22;1788;49.400;11.092;2022-10-15T14:53:57;23.60;62.20
3548;DHT22;1788;49.400;11.092;2022-10-15T14:56:27;23.50;62.40
3548;DHT22;1788;49.400;11.092;2022-10-15T14:58:51;23.80;62.10
3548;DHT22;1788;49.400;11.092;2022-10-15T15:01:17;24.00;61.40
3548;DHT22;1788;49.400;11.092;2022-10-15T15:06:10;24.50;60.20
3548;DHT22;1788;49.400;11.092;2022-10-15T15:08:38;24.10;59.90
3548;DHT22;1788;49.400;11.092;2022-10-15T15:11:05;24.10;59.80
3548;DHT22;1788;49.400;11.092;2022-10-15T15:13:36;23.40;60.40
3548;DHT22;1788;49.400;11.092;2022-10-15T15:15:58;23.40;60.40
3548;DHT22;1788;49.400;11.092;2022-10-15T15:18:26;22.80;61.30
3548;DHT22;1788;49.400;11.092;2022-10-15T15:20:52;22.80;61.10
3548;DHT22;1788;49.400;11.092;2022-10-15T15:23:20;22.50;61.50
3548;DHT22;1788;49.400;11.092;2022-10-15T15:25:46;22.20;61.90
3548;DHT22;1788;49.400;11.092;2022-10-15T15:28:13;21.90;62.40
3548;DHT22;1788;49.400;11.092;2022-10-15T15:30:40;21.50;63.30
3548;DHT22;1788;49.400;11.092;2022-10-15T15:33:08;21.50;63.30
3548;DHT22;1788;49.400;11.092;2022-10-15T15:37:59;21.20;63.90
3548;DHT22;1788;49.400;11.092;2022-10-15T15:40:26;21.10;64.20
3548;DHT22;1788;49.400;11.092;2022-10-15T15:42:53;21.00;64.50
3548;DHT22;1788;49.400;11.092;2022-10-15T15:45:21;20.70;65.30
3548;DHT22;1788;49.400;11.092;2022-10-15T15:47:47;20.70;64.80
3548;DHT22;1788;49.400;11.092;2022-10-15T15:50:14;20.40;66.20
3548;DHT22;1788;49.400;11.092;2022-10-15T15:52:41;20.50;65.30
3548;DHT22;1788;49.400;11.092;2022-10-15T15:55:07;20.30;65.40
3548;DHT22;1788;49.400;11.092;2022-10-15T15:57:34;20.20;65.60
3548;DHT22;1788;49.400;11.092;2022-10-15T16:00:00;20.10;65.80
3548;DHT22;1788;49.400;11.092;2022-10-15T16:02:28;19.90;66.10
3548;DHT22;1788;49.400;11.092;2022-10-15T16:04:54;19.90;66.10
3548;DHT22;1788;49.400;11.092;2022-10-15T16:07:22;19.80;66.20
3548;DHT22;1788;49.400;11.092;2022-10-15T16:09:48;19.70;66.10
3548;DHT22;1788;49.400;11.092;2022-10-15T16:12:15;19.70;66.30
3548;DHT22;1788;49.400;11.092;2022-10-15T16:14:42;19.60;66.40
3548;DHT22;1788;49.400;11.092;2022-10-15T16:17:08;19.60;66.50
3548;DHT22;1788;49.400;11.092;2022-10-15T16:19:36;19.50;66.70
3548;DHT22;1788;49.400;11.092;2022-10-15T16:22:02;19.50;66.60
3548;DHT22;1788;49.400;11.092;2022-10-15T16:24:30;19.40;67.60
3548;DHT22;1788;49.400;11.092;2022-10-15T16:26:56;19.40;66.80
3548;DHT22;1788;49.400;11.092;2022-10-15T16:29:23;19.40;66.90
3548;DHT22;1788;49.400;11.092;2022-10-15T16:31:49;19.30;66.90
3548;DHT22;1788;49.400;11.092;2022-10-15T16:34:16;19.30;67.00
3548;DHT22;1788;49.400;11.092;2022-10-15T16:36:43;19.30;67.30
3548;DHT22;1788;49.400;11.092;2022-10-15T16:39:10;19.30;67.20
3548;DHT22;1788;49.400;11.092;2022-10-15T16:41:37;19.30;67.30
3548;DHT22;1788;49.400;11.092;2022-10-15T16:44:03;19.20;67.70
3548;DHT22;1788;49.400;11.092;2022-10-15T16:46:30;19.20;67.30
3548;DHT22;1788;49.400;11.092;2022-10-15T16:48:56;19.20;67.50
3548;DHT22;1788;49.400;11.092;2022-10-15T16:51:23;19.20;67.50
3548;DHT22;1788;49.400;11.092;2022-10-15T16:53:50;19.10;67.50
3548;DHT22;1788;49.400;11.092;2022-10-15T16:58:44;19.10;67.70
3548;DHT22;1788;49.400;11.092;2022-10-15T17:01:11;19.10;67.70
3548;DHT22;1788;49.400;11.092;2022-10-15T17:03:38;19.10;67.90
3548;DHT22;1788;49.400;11.092;2022-10-15T17:06:06;19.10;67.80
3548;DHT22;1788;49.400;11.092;2022-10-15T17:10:57;19.00;67.80
3548;DHT22;1788;49.400;11.092;2022-10-15T17:13:24;19.10;68.00
3548;DHT22;1788;49.400;11.092;2022-10-15T17:15:51;19.10;68.20
3548;DHT22;1788;49.400;11.092;2022-10-15T17:18:18;19.00;68.00
3548;DHT22;1788;49.400;11.092;2022-10-15T17:20:46;19.10;68.50
3548;DHT22;1788;49.400;11.092;2022-10-15T17:23:12;19.10;68.20
3548;DHT22;1788;49.400;11.092;2022-10-15T17:25:39;19.10;68.30
3548;DHT22;1788;49.400;11.092;2022-10-15T17:28:06;19.10;68.30
3548;DHT22;1788;49.400;11.092;2022-10-15T17:32:59;19.10;68.40
3548;DHT22;1788;49.400;11.092;2022-10-15T17:35:26;19.10;68.50
3548;DHT22;1788;49.400;11.092;2022-10-15T17:37:53;19.10;69.30
3548;DHT22;1788;49.400;11.092;2022-10-15T17:40:20;19.10;68.50
3548;DHT22;1788;49.400;11.092;2022-10-15T17:42:47;19.10;68.50
3548;DHT22;1788;49.400;11.092;2022-10-15T17:45:14;19.10;68.50
3548;DHT22;1788;49.400;11.092;2022-10-15T17:47:41;19.10;68.50
3548;DHT22;1788;49.400;11.092;2022-10-15T17:50:07;19.10;68.60
3548;DHT22;1788;49.400;11.092;2022-10-15T17:52:34;19.10;68.70
3548;DHT22;1788;49.400;11.092;2022-10-15T17:55:01;19.10;68.80
3548;DHT22;1788;49.400;11.092;2022-10-15T17:57:28;19.10;68.90
3548;DHT22;1788;49.400;11.092;2022-10-15T17:59:55;19.10;68.90
3548;DHT22;1788;49.400;11.092;2022-10-15T18:02:21;19.10;68.90
3548;DHT22;1788;49.400;11.092;2022-10-15T18:04:48;19.10;69.00
3548;DHT22;1788;49.400;11.092;2022-10-15T18:07:15;19.10;69.00
3548;DHT22;1788;49.400;11.092;2022-10-15T18:09:41;19.10;69.00
3548;DHT22;1788;49.400;11.092;2022-10-15T18:12:08;19.10;69.10
3548;DHT22;1788;49.400;11.092;2022-10-15T18:14:34;19.00;69.10
3548;DHT22;1788;49.400;11.092;2022-10-15T18:17:01;19.10;69.30
3548;DHT22;1788;49.400;11.092;2022-10-15T18:19:28;19.00;69.30
3548;DHT22;1788;49.400;11.092;2022-10-15T18:21:55;19.00;69.30
3548;DHT22;1788;49.400;11.092;2022-10-15T18:24:21;19.10;69.50
3548;DHT22;1788;49.400;11.092;2022-10-15T18:26:48;19.00;69.40
3548;DHT22;1788;49.400;11.092;2022-10-15T18:29:15;19.00;69.60
3548;DHT22;1788;49.400;11.092;2022-10-15T18:31:41;19.00;69.40
3548;DHT22;1788;49.400;11.092;2022-10-15T18:34:08;19.00;69.50
3548;DHT22;1788;49.400;11.092;2022-10-15T18:36:34;19.00;69.50
3548;DHT22;1788;49.400;11.092;2022-10-15T18:39:01;19.00;69.60
3548;DHT22;1788;49.400;11.092;2022-10-15T18:41:29;19.00;69.60
3548;DHT22;1788;49.400;11.092;2022-10-15T18:43:56;19.00;69.80
3548;DHT22;1788;49.400;11.092;2022-10-15T18:46:22;19.00;69.80
3548;DHT22;1788;49.400;11.092;2022-10-15T18:48:48;19.00;69.80
3548;DHT22;1788;49.400;11.092;2022-10-15T18:51:15;19.00;69.80
3548;DHT22;1788;49.400;11.092;2022-10-15T18:53:42;19.00;69.80
3548;DHT22;1788;49.400;11.092;2022-10-15T18:56:08;19.00;69.90
3548;DHT22;1788;49.400;11.092;2022-10-15T18:58:35;18.90;69.90
3548;DHT22;1788;49.400;11.092;2022-10-15T19:03:28;18.90;70.10
3548;DHT22;1788;49.400;11.092;2022-10-15T19:05:55;18.80;70.40
3548;DHT22;1788;49.400;11.092;2022-10-15T19:08:22;18.80;70.40
3548;DHT22;1788;49.400;11.092;2022-10-15T19:10:48;18.70;70.40
3548;DHT22;1788;49.400;11.092;2022-10-15T19:13:15;18.70;70.50
3548;DHT22;1788;49.400;11.092;2022-10-15T19:15:42;18.70;70.60